Time,TemperatureF,DewpointF,PressureIn,WindDirection,WindDirectionDegrees,WindSpeedMPH,WindSpeedGustMPH,Humidity,HourlyPrecipIn,Conditions,Clouds,dailyrainin,SoftwareType,DateUTC
2013-02-06 00:00:00,34.5,26.8,0.00,WSW,237,0.0,0.0,73,0.00,,---,0.00,VWS V14.01,2013-02-06 06:00:00,
2013-02-06 00:05:00,34.5,27.1,0.00,WSW,237,0.0,0.0,74,0.00,,---,0.00,VWS V14.01,2013-02-06 06:05:00,
2013-02-06 00:10:00,34.5,27.1,0.00,WSW,237,0.0,0.0,74,0.00,,---,0.00,VWS V14.01,2013-02-06 06:10:00,
2013-02-06 00:15:00,34.3,26.9,0.00,WSW,237,0.0,0.0,74,0.00,,---,0.00,VWS V14.01,2013-02-06 06:15:00,
2013-02-06 00:20:00,34.2,26.8,0.00,WSW,237,0.0,0.0,74,0.00,,---,0.00,VWS V14.01,2013-02-06 06:20:00,
2013-02-06 00:25:00,34.0,26.6,0.00,WSW,237,0.0,0.0,74,0.00,,---,0.00,VWS V14.01,2013-02-06 06:25:00,
2013-02-06 00:30:00,34.0,26.9,0.00,WSW,237,0.0,0.0,75,0.00,,---,0.00,VWS V14.01,2013-02-06 06:30:00,
2013-02-06 00:35:00,34.0,26.9,0.00,WSW,237,0.0,0.0,75,0.00,,---,0.00,VWS V14.01,2013-02-06 06:35:00,
2013-02-06 00:40:00,33.8,26.7,0.00,WSW,237,0.0,0.0,75,0.00,,---,0.00,VWS V14.01,2013-02-06 06:40:00,
2013-02-06 00:45:00,33.8,26.7,0.00,WSW,237,0.0,0.0,75,0.00,,---,0.00,VWS V14.01,2013-02-06 06:45:00,
2013-02-06 00:50:00,33.4,26.4,0.00,WSW,237,0.0,0.0,75,0.00,,---,0.00,VWS V14.01,2013-02-06 06:50:00,
2013-02-06 00:55:00,33.3,26.2,0.00,WSW,237,0.0,0.0,75,0.00,,---,0.00,VWS V14.01,2013-02-06 06:55:00,
2013-02-06 01:00:00,33.3,26.2,0.00,WSW,237,0.0,0.0,75,0.00,,---,0.00,VWS V14.01,2013-02-06 07:00:00,
2013-02-06 01:05:00,33.1,26.4,0.00,WSW,237,0.0,0.0,76,0.00,,---,0.00,VWS V14.01,2013-02-06 07:05:00,
2013-02-06 01:10:00,33.1,26.4,0.00,WSW,237,0.0,0.0,76,0.00,,---,0.00,VWS V14.01,2013-02-06 07:10:00,
2013-02-06 01:15:00,33.1,26.4,0.00,WSW,237,0.0,0.0,76,0.00,,---,0.00,VWS V14.01,2013-02-06 07:15:00,
2013-02-06 01:20:00,32.9,26.2,0.00,WSW,237,0.0,0.0,76,0.00,,---,0.00,VWS V14.01,2013-02-06 07:20:00,
2013-02-06 01:25:00,32.7,26.0,0.00,WSW,237,0.0,0.0,76,0.00,,---,0.00,VWS V14.01,2013-02-06 07:25:00,
2013-02-06 01:30:00,32.7,26.0,0.00,WSW,237,0.0,0.0,76,0.00,,---,0.00,VWS V14.01,2013-02-06 07:30:00,
2013-02-06 01:35:00,32.7,26.3,0.00,WSW,237,0.0,0.0,77,0.00,,---,0.00,VWS V14.01,2013-02-06 07:35:00,
2013-02-06 01:40:00,32.7,26.3,0.00,WSW,237,0.0,0.0,77,0.00,,---,0.00,VWS V14.01,2013-02-06 07:40:00,
2013-02-06 01:45:00,32.5,25.8,0.00,WSW,237,0.0,0.0,76,0.00,,---,0.00,VWS V14.01,2013-02-06 07:45:00,
2013-02-06 01:50:00,32.2,25.5,0.00,WSW,237,0.0,0.0,76,0.00,,---,0.00,VWS V14.01,2013-02-06 07:50:00,
2013-02-06 01:55:00,32.0,25.3,0.00,WSW,237,0.0,0.0,76,0.00,,---,0.00,VWS V14.01,2013-02-06 07:55:00,
2013-02-06 02:00:00,31.6,25.3,0.00,WSW,237,0.0,0.0,77,0.00,,---,0.00,VWS V14.01,2013-02-06 08:00:00,
2013-02-06 02:05:00,31.5,25.1,0.00,WSW,237,0.0,0.0,77,0.00,,---,0.00,VWS V14.01,2013-02-06 08:05:00,
2013-02-06 02:10:00,31.1,24.8,0.00,WSW,237,0.0,0.0,77,0.00,,---,0.00,VWS V14.01,2013-02-06 08:10:00,
2013-02-06 02:15:00,31.1,24.8,0.00,WSW,237,0.0,0.0,77,0.00,,---,0.00,VWS V14.01,2013-02-06 08:15:00,
2013-02-06 02:20:00,31.1,25.0,0.00,WSW,237,0.0,0.0,78,0.00,,---,0.00,VWS V14.01,2013-02-06 08:20:00,
2013-02-06 02:25:00,31.3,25.2,0.00,WSW,237,0.0,0.0,78,0.00,,---,0.00,VWS V14.01,2013-02-06 08:25:00,
2013-02-06 02:30:00,31.3,25.2,0.00,WSW,237,0.0,0.0,78,0.00,,---,0.00,VWS V14.01,2013-02-06 08:30:00,
2013-02-06 02:35:00,31.3,25.2,0.00,WSW,237,0.0,0.0,78,0.00,,---,0.00,VWS V14.01,2013-02-06 08:35:00,
2013-02-06 02:40:00,31.3,25.2,0.00,WSW,237,0.0,0.0,78,0.00,,---,0.00,VWS V14.01,2013-02-06 08:40:00,
2013-02-06 02:45:00,31.1,25.0,0.00,WSW,237,0.0,0.0,78,0.00,,---,0.00,VWS V14.01,2013-02-06 08:45:00,
2013-02-06 02:50:00,31.1,25.0,0.00,WSW,237,0.0,0.0,78,0.00,,---,0.00,VWS V14.01,2013-02-06 08:50:00,
2013-02-06 02:55:00,30.9,24.9,0.00,WSW,237,0.0,0.0,78,0.00,,---,0.00,VWS V14.01,2013-02-06 08:55:00,
2013-02-06 03:00:00,30.9,24.9,0.00,WSW,237,0.0,0.0,78,0.00,,---,0.00,VWS V14.01,2013-02-06 09:00:00,
2013-02-06 03:05:00,30.9,25.2,0.00,WSW,237,0.0,0.0,79,0.00,,---,0.00,VWS V14.01,2013-02-06 09:05:00,
2013-02-06 03:10:00,31.1,25.4,0.00,WSW,237,0.0,0.0,79,0.00,,---,0.00,VWS V14.01,2013-02-06 09:10:00,
2013-02-06 03:15:00,30.9,25.2,0.00,WSW,237,0.0,0.0,79,0.00,,---,0.00,VWS V14.01,2013-02-06 09:15:00,
2013-02-06 03:20:00,30.9,25.2,0.00,WSW,237,0.0,0.0,79,0.00,,---,0.00,VWS V14.01,2013-02-06 09:20:00,
2013-02-06 03:25:00,30.7,25.3,0.00,WSW,237,0.0,0.0,80,0.00,,---,0.00,VWS V14.01,2013-02-06 09:25:00,
2013-02-06 03:30:00,30.6,25.1,0.00,WSW,237,0.0,0.0,80,0.00,,---,0.00,VWS V14.01,2013-02-06 09:30:00,
2013-02-06 03:35:00,30.2,24.8,0.00,WSW,237,0.0,0.0,80,0.00,,---,0.00,VWS V14.01,2013-02-06 09:35:00,
2013-02-06 03:40:00,30.0,24.6,0.00,WSW,237,0.0,0.0,80,0.00,,---,0.00,VWS V14.01,2013-02-06 09:40:00,
2013-02-06 03:45:00,29.8,24.4,0.00,WSW,237,0.0,0.0,80,0.00,,---,0.00,VWS V14.01,2013-02-06 09:45:00,
2013-02-06 03:50:00,29.8,24.4,0.00,WSW,237,0.0,0.0,80,0.00,,---,0.00,VWS V14.01,2013-02-06 09:50:00,
2013-02-06 03:55:00,29.8,24.7,0.00,WSW,237,0.0,0.0,81,0.00,,---,0.00,VWS V14.01,2013-02-06 09:55:00,
2013-02-06 04:00:00,29.8,24.7,0.00,WSW,237,0.0,0.0,81,0.00,,---,0.00,VWS V14.01,2013-02-06 10:00:00,
2013-02-06 04:05:00,29.7,24.6,0.00,WSW,237,0.0,0.0,81,0.00,,---,0.00,VWS V14.01,2013-02-06 10:05:00,
2013-02-06 04:10:00,29.7,24.6,0.00,WSW,237,0.0,0.0,81,0.00,,---,0.00,VWS V14.01,2013-02-06 10:10:00,
2013-02-06 04:15:00,29.5,24.4,0.00,WSW,237,0.0,0.0,81,0.00,,---,0.00,VWS V14.01,2013-02-06 10:15:00,
2013-02-06 04:20:00,29.5,24.4,0.00,WSW,237,0.0,0.0,81,0.00,,---,0.00,VWS V14.01,2013-02-06 10:20:00,
2013-02-06 04:25:00,29.3,24.2,0.00,WSW,237,0.0,0.0,81,0.00,,---,0.00,VWS V14.01,2013-02-06 10:25:00,
2013-02-06 04:30:00,29.3,24.2,0.00,WSW,237,0.0,0.0,81,0.00,,---,0.00,VWS V14.01,2013-02-06 10:30:00,
2013-02-06 04:35:00,29.1,24.0,0.00,WSW,237,0.0,0.0,81,0.00,,---,0.00,VWS V14.01,2013-02-06 10:35:00,
2013-02-06 04:40:00,29.1,24.0,0.00,WSW,237,0.0,0.0,81,0.00,,---,0.00,VWS V14.01,2013-02-06 10:40:00,
2013-02-06 04:45:00,28.9,23.9,0.00,WSW,237,0.0,0.0,81,0.00,,---,0.00,VWS V14.01,2013-02-06 10:45:00,
2013-02-06 04:50:00,28.9,23.9,0.00,WSW,237,0.0,0.0,81,0.00,,---,0.00,VWS V14.01,2013-02-06 10:50:00,
2013-02-06 04:55:00,29.1,24.0,0.00,WSW,237,0.0,0.0,81,0.00,,---,0.00,VWS V14.01,2013-02-06 10:55:00,
2013-02-06 05:00:00,29.1,24.0,0.00,WSW,237,0.0,0.0,81,0.00,,---,0.00,VWS V14.01,2013-02-06 11:00:00,
2013-02-06 05:05:00,29.3,24.2,0.00,WSW,237,0.0,0.0,81,0.00,,---,0.00,VWS V14.01,2013-02-06 11:05:00,
2013-02-06 05:10:00,29.3,24.2,0.00,WSW,237,0.0,0.0,81,0.00,,---,0.00,VWS V14.01,2013-02-06 11:10:00,
2013-02-06 05:15:00,29.1,24.0,0.00,WSW,237,0.0,0.0,81,0.00,,---,0.00,VWS V14.01,2013-02-06 11:15:00,
2013-02-06 05:20:00,28.9,23.9,0.00,WSW,237,0.0,0.0,81,0.00,,---,0.00,VWS V14.01,2013-02-06 11:20:00,
2013-02-06 05:25:00,29.1,24.0,0.00,WSW,237,0.0,0.0,81,0.00,,---,0.00,VWS V14.01,2013-02-06 11:25:00,
2013-02-06 05:30:00,29.1,24.0,0.00,WSW,237,0.0,0.0,81,0.00,,---,0.00,VWS V14.01,2013-02-06 11:30:00,
2013-02-06 05:35:00,28.9,23.9,0.00,WSW,237,0.0,0.0,81,0.00,,---,0.00,VWS V14.01,2013-02-06 11:35:00,
2013-02-06 05:40:00,28.8,23.7,0.00,WSW,237,0.0,0.0,81,0.00,,---,0.00,VWS V14.01,2013-02-06 11:40:00,
2013-02-06 05:45:00,28.8,23.7,0.00,WSW,237,0.0,0.0,81,0.00,,---,0.00,VWS V14.01,2013-02-06 11:45:00,
2013-02-06 05:50:00,28.6,23.5,0.00,WSW,237,0.0,0.0,81,0.00,,---,0.00,VWS V14.01,2013-02-06 11:50:00,
2013-02-06 05:55:00,28.6,23.5,0.00,WSW,237,0.0,0.0,81,0.00,,---,0.00,VWS V14.01,2013-02-06 11:55:00,
2013-02-06 06:00:00,28.6,23.5,0.00,WSW,237,0.0,0.0,81,0.00,,---,0.00,VWS V14.01,2013-02-06 12:00:00,
2013-02-06 06:05:00,28.6,23.5,0.00,WSW,237,0.0,0.0,81,0.00,,---,0.00,VWS V14.01,2013-02-06 12:05:00,
2013-02-06 06:10:00,28.6,23.5,0.00,WSW,237,0.0,0.0,81,0.00,,---,0.00,VWS V14.01,2013-02-06 12:10:00,
2013-02-06 06:15:00,28.4,23.3,0.00,WSW,237,0.0,0.0,81,0.00,,---,0.00,VWS V14.01,2013-02-06 12:15:00,
2013-02-06 06:20:00,28.2,23.1,0.00,WSW,237,0.0,0.0,81,0.00,,---,0.00,VWS V14.01,2013-02-06 12:20:00,
2013-02-06 06:25:00,28.4,23.6,0.00,WSW,237,0.0,0.0,82,0.00,,---,0.00,VWS V14.01,2013-02-06 12:25:00,
2013-02-06 06:30:00,28.2,23.4,0.00,WSW,237,0.0,0.0,82,0.00,,---,0.00,VWS V14.01,2013-02-06 12:30:00,
2013-02-06 06:35:00,28.2,23.4,0.00,WSW,237,0.0,0.0,82,0.00,,---,0.00,VWS V14.01,2013-02-06 12:35:00,
2013-02-06 06:40:00,28.2,23.4,0.00,WSW,237,0.0,0.0,82,0.00,,---,0.00,VWS V14.01,2013-02-06 12:40:00,
2013-02-06 06:45:00,28.0,23.3,0.00,WSW,237,0.0,0.0,82,0.00,,---,0.00,VWS V14.01,2013-02-06 12:45:00,
2013-02-06 06:50:00,28.0,23.3,0.00,WSW,237,0.0,0.0,82,0.00,,---,0.00,VWS V14.01,2013-02-06 12:50:00,
2013-02-06 06:55:00,28.0,23.3,0.00,WSW,237,0.0,0.0,82,0.00,,---,0.00,VWS V14.01,2013-02-06 12:55:00,
2013-02-06 07:00:00,28.0,23.3,0.00,WSW,237,0.0,0.0,82,0.00,,---,0.00,VWS V14.01,2013-02-06 13:00:00,
2013-02-06 07:05:00,28.0,23.3,0.00,WSW,237,0.0,0.0,82,0.00,,---,0.00,VWS V14.01,2013-02-06 13:05:00,
2013-02-06 07:10:00,28.4,23.6,0.00,WSW,237,0.0,0.0,82,0.00,,---,0.00,VWS V14.01,2013-02-06 13:10:00,
2013-02-06 07:15:00,29.1,24.3,0.00,WSW,237,0.0,0.0,82,0.00,,---,0.00,VWS V14.01,2013-02-06 13:15:00,
2013-02-06 07:20:00,30.2,25.4,0.00,WSW,237,0.0,0.0,82,0.00,,---,0.00,VWS V14.01,2013-02-06 13:20:00,
2013-02-06 07:25:00,31.1,26.3,0.00,WSW,237,0.0,0.0,82,0.00,,---,0.00,VWS V14.01,2013-02-06 13:25:00,
2013-02-06 07:30:00,31.3,26.1,0.00,WSW,237,0.0,0.0,81,0.00,,---,0.00,VWS V14.01,2013-02-06 13:30:00,
2013-02-06 07:35:00,31.3,26.1,0.00,WSW,237,0.0,0.0,81,0.00,,---,0.00,VWS V14.01,2013-02-06 13:35:00,
2013-02-06 07:40:00,31.6,26.5,0.00,WSW,237,0.0,0.0,81,0.00,,---,0.00,VWS V14.01,2013-02-06 13:40:00,
2013-02-06 07:45:00,32.5,27.7,0.00,WSW,237,0.0,0.0,82,0.00,,---,0.00,VWS V14.01,2013-02-06 13:45:00,
2013-02-06 07:50:00,33.4,28.8,0.00,WSW,237,0.0,0.0,83,0.00,,---,0.00,VWS V14.01,2013-02-06 13:50:00,
2013-02-06 07:55:00,34.0,28.8,0.00,WSW,237,0.0,0.0,81,0.00,,---,0.00,VWS V14.01,2013-02-06 13:55:00,
2013-02-06 08:00:00,34.2,29.0,0.00,WSW,237,0.0,0.0,81,0.00,,---,0.00,VWS V14.01,2013-02-06 14:00:00,
2013-02-06 08:05:00,34.5,29.6,0.00,WSW,237,0.0,0.0,82,0.00,,---,0.00,VWS V14.01,2013-02-06 14:05:00,
2013-02-06 08:10:00,35.1,30.1,0.00,WSW,237,0.0,0.0,82,0.00,,---,0.00,VWS V14.01,2013-02-06 14:10:00,
2013-02-06 08:15:00,35.8,30.8,0.00,WSW,237,0.0,0.0,82,0.00,,---,0.00,VWS V14.01,2013-02-06 14:15:00,
2013-02-06 08:20:00,36.7,31.7,0.00,WSW,237,0.0,0.0,82,0.00,,---,0.00,VWS V14.01,2013-02-06 14:20:00,
2013-02-06 08:25:00,37.6,32.6,0.00,WSW,237,0.0,0.0,82,0.00,,---,0.00,VWS V14.01,2013-02-06 14:25:00,
2013-02-06 08:30:00,38.7,34.0,0.00,WSW,237,0.0,0.0,83,0.00,,---,0.00,VWS V14.01,2013-02-06 14:30:00,
2013-02-06 08:35:00,39.9,34.9,0.00,WSW,237,0.0,0.0,82,0.00,,---,0.00,VWS V14.01,2013-02-06 14:35:00,
2013-02-06 08:40:00,41.0,35.9,0.00,WSW,237,0.0,0.0,82,0.00,,---,0.00,VWS V14.01,2013-02-06 14:40:00,
2013-02-06 08:45:00,41.4,31.6,0.00,North,2,3.1,3.6,68,0.00,,---,0.00,VWS V14.01,2013-02-06 14:45:00,
2013-02-06 08:50:00,42.3,29.8,0.00,NNE,13,2.7,3.1,61,0.00,,---,0.00,VWS V14.01,2013-02-06 14:50:00,
2013-02-06 08:55:00,43.0,29.2,0.00,North,5,4.0,4.9,58,0.00,,---,0.00,VWS V14.01,2013-02-06 14:55:00,
2013-02-06 09:00:00,43.5,29.7,0.00,North,353,0.0,2.2,58,0.00,,---,0.00,VWS V14.01,2013-02-06 15:00:00,
2013-02-06 09:05:00,44.1,30.2,0.00,North,0,2.7,3.6,58,0.00,,---,0.00,VWS V14.01,2013-02-06 15:05:00,
2013-02-06 09:10:00,44.4,30.6,0.00,North,3,2.7,3.1,58,0.00,,---,0.00,VWS V14.01,2013-02-06 15:10:00,
2013-02-06 09:15:00,44.8,30.5,0.00,NNW,339,3.1,3.6,57,0.00,,---,0.00,VWS V14.01,2013-02-06 15:15:00,
2013-02-06 09:20:00,45.3,31.0,0.00,North,6,3.6,3.6,57,0.00,,---,0.00,VWS V14.01,2013-02-06 15:20:00,
2013-02-06 09:25:00,45.5,31.2,0.00,NNW,336,0.0,2.7,57,0.00,,---,0.00,VWS V14.01,2013-02-06 15:25:00,
2013-02-06 09:30:00,46.0,31.7,0.00,SW,231,3.1,4.0,57,0.00,,---,0.00,VWS V14.01,2013-02-06 15:30:00,
2013-02-06 09:35:00,46.4,32.0,0.00,South,173,2.2,2.7,57,0.00,,---,0.00,VWS V14.01,2013-02-06 15:35:00,
2013-02-06 09:40:00,46.9,32.5,0.00,WSW,237,2.2,2.7,57,0.00,,---,0.00,VWS V14.01,2013-02-06 15:40:00,
2013-02-06 09:45:00,47.3,32.8,0.00,WSW,237,2.2,3.1,57,0.00,,---,0.00,VWS V14.01,2013-02-06 15:45:00,
2013-02-06 09:50:00,47.5,33.0,0.00,NNW,333,0.0,0.0,57,0.00,,---,0.00,VWS V14.01,2013-02-06 15:50:00,
2013-02-06 09:55:00,47.8,33.4,0.00,SW,226,4.9,4.9,57,0.00,,---,0.00,VWS V14.01,2013-02-06 15:55:00,
2013-02-06 10:00:00,48.0,33.5,0.00,WNW,283,3.1,4.0,57,0.00,,---,0.00,VWS V14.01,2013-02-06 16:00:00,
2013-02-06 10:05:00,48.2,33.3,0.00,WSW,244,3.1,3.1,56,0.00,,---,0.00,VWS V14.01,2013-02-06 16:05:00,
2013-02-06 10:10:00,48.4,33.4,0.00,WSW,258,2.2,3.1,56,0.00,,---,0.00,VWS V14.01,2013-02-06 16:10:00,
2013-02-06 10:15:00,48.9,33.9,0.00,West,261,2.2,2.2,56,0.00,,---,0.00,VWS V14.01,2013-02-06 16:15:00,
2013-02-06 10:20:00,49.5,34.4,0.00,WSW,257,2.7,2.7,56,0.00,,---,0.00,VWS V14.01,2013-02-06 16:20:00,
2013-02-06 10:25:00,50.0,34.9,0.00,WNW,303,0.0,0.0,56,0.00,,---,0.00,VWS V14.01,2013-02-06 16:25:00,
2013-02-06 10:30:00,50.2,35.1,0.00,WNW,303,3.6,3.6,56,0.00,,---,0.00,VWS V14.01,2013-02-06 16:30:00,
2013-02-06 10:35:00,50.4,35.3,0.00,SW,225,2.7,2.7,56,0.00,,---,0.00,VWS V14.01,2013-02-06 16:35:00,
2013-02-06 10:40:00,50.5,35.4,0.00,NNW,332,0.0,0.0,56,0.00,,---,0.00,VWS V14.01,2013-02-06 16:40:00,
2013-02-06 10:45:00,50.7,35.6,0.00,NW,308,0.0,0.0,56,0.00,,---,0.00,VWS V14.01,2013-02-06 16:45:00,
2013-02-06 10:50:00,51.6,36.5,0.00,SSW,207,2.7,2.7,56,0.00,,---,0.00,VWS V14.01,2013-02-06 16:50:00,
2013-02-06 10:55:00,52.0,36.8,0.00,SW,219,2.2,3.1,56,0.00,,---,0.00,VWS V14.01,2013-02-06 16:55:00,
2013-02-06 11:00:00,51.8,36.6,0.00,WSW,240,2.2,5.4,56,0.00,,---,0.00,VWS V14.01,2013-02-06 17:00:00,
2013-02-06 11:05:00,51.6,36.5,0.00,SW,227,4.0,5.4,56,0.00,,---,0.00,VWS V14.01,2013-02-06 17:05:00,
2013-02-06 11:10:00,51.6,36.5,0.00,NNW,331,2.7,2.7,56,0.00,,---,0.00,VWS V14.01,2013-02-06 17:10:00,
2013-02-06 11:15:00,51.8,36.6,0.00,SW,236,2.2,4.0,56,0.00,,---,0.00,VWS V14.01,2013-02-06 17:15:00,
2013-02-06 11:20:00,51.8,36.6,0.00,SSW,196,0.0,2.7,56,0.00,,---,0.00,VWS V14.01,2013-02-06 17:20:00,
2013-02-06 11:25:00,52.5,37.3,0.00,SE,132,0.0,0.0,56,0.00,,---,0.00,VWS V14.01,2013-02-06 17:25:00,
2013-02-06 11:30:00,53.1,37.8,0.00,NNE,28,0.0,3.1,56,0.00,,---,0.00,VWS V14.01,2013-02-06 17:30:00,
2013-02-06 11:35:00,53.1,37.8,0.00,NW,309,2.7,2.7,56,0.00,,---,0.00,VWS V14.01,2013-02-06 17:35:00,
2013-02-06 11:40:00,53.1,37.8,0.00,SW,224,4.0,4.0,56,0.00,,---,0.00,VWS V14.01,2013-02-06 17:40:00,
2013-02-06 11:45:00,53.1,37.8,0.00,WNW,300,6.3,6.3,56,0.00,,---,0.00,VWS V14.01,2013-02-06 17:45:00,
2013-02-06 11:50:00,52.7,37.5,0.00,North,357,3.6,4.9,56,0.00,,---,0.00,VWS V14.01,2013-02-06 17:50:00,
2013-02-06 11:55:00,52.7,37.5,0.00,North,0,4.0,4.0,56,0.00,,---,0.00,VWS V14.01,2013-02-06 17:55:00,
2013-02-06 12:00:00,52.9,37.6,0.00,NW,307,5.8,5.8,56,0.00,,---,0.00,VWS V14.01,2013-02-06 18:00:00,
2013-02-06 12:05:00,52.9,37.6,0.00,South,170,2.2,2.7,56,0.00,,---,0.00,VWS V14.01,2013-02-06 18:05:00,
2013-02-06 12:10:00,53.1,37.8,0.00,NNW,328,5.4,6.3,56,0.00,,---,0.00,VWS V14.01,2013-02-06 18:10:00,
2013-02-06 12:15:00,53.2,38.0,0.00,WSW,244,4.0,4.0,56,0.00,,---,0.00,VWS V14.01,2013-02-06 18:15:00,
2013-02-06 12:20:00,53.4,38.1,0.00,NNW,346,3.1,3.1,56,0.00,,---,0.00,VWS V14.01,2013-02-06 18:20:00,
2013-02-06 12:25:00,53.6,37.8,0.00,NW,310,0.0,0.0,55,0.00,,---,0.00,VWS V14.01,2013-02-06 18:25:00,
2013-02-06 12:30:00,54.3,38.5,0.00,NNW,343,5.4,8.3,55,0.00,,---,0.00,VWS V14.01,2013-02-06 18:30:00,
2013-02-06 12:35:00,54.3,38.5,0.00,NNW,345,6.3,7.6,55,0.00,,---,0.00,VWS V14.01,2013-02-06 18:35:00,
2013-02-06 12:40:00,54.0,38.2,0.00,NNW,338,4.0,4.0,55,0.00,,---,0.00,VWS V14.01,2013-02-06 18:40:00,
2013-02-06 12:45:00,54.1,38.3,0.00,NNE,18,2.2,3.1,55,0.00,,---,0.00,VWS V14.01,2013-02-06 18:45:00,
2013-02-06 12:50:00,54.3,38.5,0.00,WNW,286,2.7,6.3,55,0.00,,---,0.00,VWS V14.01,2013-02-06 18:50:00,
2013-02-06 12:55:00,54.3,38.5,0.00,WNW,289,4.0,8.7,55,0.00,,---,0.00,VWS V14.01,2013-02-06 18:55:00,
2013-02-06 13:00:00,54.3,38.5,0.00,WNW,287,3.1,3.6,55,0.00,,---,0.00,VWS V14.01,2013-02-06 19:00:00,
2013-02-06 13:05:00,55.0,39.2,0.00,WNW,287,0.0,4.9,55,0.00,,---,0.00,VWS V14.01,2013-02-06 19:05:00,
2013-02-06 13:10:00,55.6,39.7,0.00,WNW,288,2.7,4.0,55,0.00,,---,0.00,VWS V14.01,2013-02-06 19:10:00,
2013-02-06 13:15:00,55.9,40.0,0.00,SSE,149,0.0,2.7,55,0.00,,---,0.00,VWS V14.01,2013-02-06 19:15:00,
2013-02-06 13:20:00,56.3,40.4,0.00,North,357,3.6,5.8,55,0.00,,---,0.00,VWS V14.01,2013-02-06 19:20:00,
2013-02-06 13:25:00,56.3,40.4,0.00,NNW,339,3.6,5.8,55,0.00,,---,0.00,VWS V14.01,2013-02-06 19:25:00,
2013-02-06 13:30:00,56.3,40.4,0.00,East,93,0.0,3.6,55,0.00,,---,0.00,VWS V14.01,2013-02-06 19:30:00,
2013-02-06 13:35:00,56.5,40.5,0.00,NNW,340,8.1,8.1,55,0.00,,---,0.00,VWS V14.01,2013-02-06 19:35:00,
2013-02-06 13:40:00,56.1,40.2,0.00,NNW,342,6.3,6.3,55,0.00,,---,0.00,VWS V14.01,2013-02-06 19:40:00,
2013-02-06 13:45:00,55.9,40.0,0.00,North,0,3.6,4.0,55,0.00,,---,0.00,VWS V14.01,2013-02-06 19:45:00,
2013-02-06 13:50:00,56.1,40.2,0.00,WNW,290,6.3,6.3,55,0.00,,---,0.00,VWS V14.01,2013-02-06 19:50:00,
2013-02-06 13:55:00,56.8,40.9,0.00,NW,306,2.2,3.6,55,0.00,,---,0.00,VWS V14.01,2013-02-06 19:55:00,
2013-02-06 14:00:00,57.2,40.7,0.00,North,0,5.4,5.4,54,0.00,,---,0.00,VWS V14.01,2013-02-06 20:00:00,
2013-02-06 14:05:00,57.2,40.7,0.00,West,281,6.3,6.3,54,0.00,,---,0.00,VWS V14.01,2013-02-06 20:05:00,
2013-02-06 14:10:00,57.4,40.9,0.00,NW,316,5.4,5.8,54,0.00,,---,0.00,VWS V14.01,2013-02-06 20:10:00,
2013-02-06 14:15:00,57.2,40.7,0.00,NW,319,5.4,7.6,54,0.00,,---,0.00,VWS V14.01,2013-02-06 20:15:00,
2013-02-06 14:20:00,56.8,40.9,0.00,NW,319,7.6,8.3,55,0.00,,---,0.00,VWS V14.01,2013-02-06 20:20:00,
2013-02-06 14:25:00,56.8,40.9,0.00,WNW,295,7.6,7.6,55,0.00,,---,0.00,VWS V14.01,2013-02-06 20:25:00,
2013-02-06 14:30:00,56.8,40.9,0.00,SSW,209,3.6,4.0,55,0.00,,---,0.00,VWS V14.01,2013-02-06 20:30:00,
2013-02-06 14:35:00,57.4,40.9,0.00,WNW,290,5.8,5.8,54,0.00,,---,0.00,VWS V14.01,2013-02-06 20:35:00,
2013-02-06 14:40:00,57.2,40.7,0.00,WSW,257,4.0,6.3,54,0.00,,---,0.00,VWS V14.01,2013-02-06 20:40:00,
2013-02-06 14:45:00,57.4,40.9,0.00,NNW,341,2.7,2.7,54,0.00,,---,0.00,VWS V14.01,2013-02-06 20:45:00,
2013-02-06 14:50:00,57.4,40.9,0.00,NNW,337,4.0,5.4,54,0.00,,---,0.00,VWS V14.01,2013-02-06 20:50:00,
2013-02-06 14:55:00,57.2,40.7,0.00,NW,326,4.0,4.0,54,0.00,,---,0.00,VWS V14.01,2013-02-06 20:55:00,
2013-02-06 15:00:00,57.2,40.7,0.00,NNW,328,3.6,3.6,54,0.00,,---,0.00,VWS V14.01,2013-02-06 21:00:00,
2013-02-06 15:05:00,57.6,41.1,0.00,WNW,283,3.1,3.6,54,0.00,,---,0.00,VWS V14.01,2013-02-06 21:05:00,
2013-02-06 15:10:00,57.9,41.4,0.00,WNW,299,0.0,4.0,54,0.00,,---,0.00,VWS V14.01,2013-02-06 21:10:00,
2013-02-06 15:15:00,58.1,41.6,0.00,SSE,161,0.0,2.7,54,0.00,,---,0.00,VWS V14.01,2013-02-06 21:15:00,
2013-02-06 15:20:00,57.7,41.2,0.00,NW,319,2.2,2.7,54,0.00,,---,0.00,VWS V14.01,2013-02-06 21:20:00,
2013-02-06 15:25:00,57.2,40.7,0.00,NW,320,3.6,5.4,54,0.00,,---,0.00,VWS V14.01,2013-02-06 21:25:00,
2013-02-06 15:30:00,56.8,40.9,0.00,NNW,346,4.0,5.4,55,0.00,,---,0.00,VWS V14.01,2013-02-06 21:30:00,
2013-02-06 15:35:00,56.7,40.7,0.00,NW,308,5.4,5.4,55,0.00,,---,0.00,VWS V14.01,2013-02-06 21:35:00,
2013-02-06 15:40:00,56.7,40.7,0.00,North,353,4.5,4.5,55,0.00,,---,0.00,VWS V14.01,2013-02-06 21:40:00,
2013-02-06 15:45:00,56.7,40.7,0.00,NNE,16,3.6,4.9,55,0.00,,---,0.00,VWS V14.01,2013-02-06 21:45:00,
2013-02-06 15:50:00,56.7,40.7,0.00,NNW,329,2.7,3.6,55,0.00,,---,0.00,VWS V14.01,2013-02-06 21:50:00,
2013-02-06 15:55:00,56.8,40.9,0.00,WNW,301,3.6,3.6,55,0.00,,---,0.00,VWS V14.01,2013-02-06 21:55:00,
2013-02-06 16:00:00,56.8,40.9,0.00,NNW,330,5.4,5.8,55,0.00,,---,0.00,VWS V14.01,2013-02-06 22:00:00,
2013-02-06 16:05:00,56.8,40.9,0.00,NNW,331,4.0,4.9,55,0.00,,---,0.00,VWS V14.01,2013-02-06 22:05:00,
2013-02-06 16:10:00,56.7,40.7,0.00,NW,313,3.6,5.8,55,0.00,,---,0.00,VWS V14.01,2013-02-06 22:10:00,
2013-02-06 16:15:00,56.5,40.5,0.00,WNW,300,2.2,2.2,55,0.00,,---,0.00,VWS V14.01,2013-02-06 22:15:00,
2013-02-06 16:20:00,56.1,40.2,0.00,North,353,4.9,4.9,55,0.00,,---,0.00,VWS V14.01,2013-02-06 22:20:00,
2013-02-06 16:25:00,55.8,39.8,0.00,NNE,14,4.0,4.0,55,0.00,,---,0.00,VWS V14.01,2013-02-06 22:25:00,
2013-02-06 16:30:00,55.6,39.7,0.00,NNE,14,0.0,0.0,55,0.00,,---,0.00,VWS V14.01,2013-02-06 22:30:00,
2013-02-06 16:35:00,55.4,39.5,0.00,NNE,14,0.0,0.0,55,0.00,,---,0.00,VWS V14.01,2013-02-06 22:35:00,
2013-02-06 16:40:00,55.0,39.2,0.00,NNE,14,0.0,0.0,55,0.00,,---,0.00,VWS V14.01,2013-02-06 22:40:00,
2013-02-06 16:45:00,54.7,38.8,0.00,NNE,14,0.0,0.0,55,0.00,,---,0.00,VWS V14.01,2013-02-06 22:45:00,
2013-02-06 16:50:00,54.3,38.5,0.00,NNE,14,0.0,0.0,55,0.00,,---,0.00,VWS V14.01,2013-02-06 22:50:00,
2013-02-06 16:55:00,54.0,38.2,0.00,NNE,14,0.0,0.0,55,0.00,,---,0.00,VWS V14.01,2013-02-06 22:55:00,
2013-02-06 17:00:00,53.4,38.1,0.00,NNE,14,0.0,0.0,56,0.00,,---,0.00,VWS V14.01,2013-02-06 23:00:00,
2013-02-06 17:05:00,52.9,37.6,0.00,NNE,14,0.0,0.0,56,0.00,,---,0.00,VWS V14.01,2013-02-06 23:05:00,
2013-02-06 17:10:00,51.8,36.6,0.00,NNE,14,0.0,0.0,56,0.00,,---,0.00,VWS V14.01,2013-02-06 23:10:00,
2013-02-06 17:15:00,50.9,35.8,0.00,NNE,14,0.0,0.0,56,0.00,,---,0.00,VWS V14.01,2013-02-06 23:15:00,
2013-02-06 17:20:00,50.2,35.1,0.00,NNE,14,0.0,0.0,56,0.00,,---,0.00,VWS V14.01,2013-02-06 23:20:00,
2013-02-06 17:25:00,49.6,34.6,0.00,NNE,14,0.0,0.0,56,0.00,,---,0.00,VWS V14.01,2013-02-06 23:25:00,
2013-02-06 17:30:00,49.1,34.1,0.00,NNE,14,0.0,0.0,56,0.00,,---,0.00,VWS V14.01,2013-02-06 23:30:00,
2013-02-06 17:35:00,48.7,33.8,0.00,NNE,14,0.0,0.0,56,0.00,,---,0.00,VWS V14.01,2013-02-06 23:35:00,
2013-02-06 17:40:00,48.4,33.4,0.00,NNE,14,0.0,0.0,56,0.00,,---,0.00,VWS V14.01,2013-02-06 23:40:00,
2013-02-06 17:45:00,48.0,33.5,0.00,NNE,14,0.0,0.0,57,0.00,,---,0.00,VWS V14.01,2013-02-06 23:45:00,
2013-02-06 17:50:00,47.7,33.2,0.00,NNE,14,0.0,0.0,57,0.00,,---,0.00,VWS V14.01,2013-02-06 23:50:00,
2013-02-06 17:55:00,47.3,32.8,0.00,NNE,14,0.0,0.0,57,0.00,,---,0.00,VWS V14.01,2013-02-06 23:55:00,
2013-02-06 18:00:00,46.8,32.3,0.00,NNE,14,0.0,0.0,57,0.00,,---,0.00,VWS V14.01,2013-02-07 00:00:00,
2013-02-06 18:05:00,46.4,32.0,0.00,NNE,14,0.0,0.0,57,0.00,,---,0.00,VWS V14.01,2013-02-07 00:05:00,
2013-02-06 18:10:00,46.0,31.7,0.00,NNE,14,0.0,0.0,57,0.00,,---,0.00,VWS V14.01,2013-02-07 00:10:00,
2013-02-06 18:15:00,45.5,31.2,0.00,NNE,14,0.0,0.0,57,0.00,,---,0.00,VWS V14.01,2013-02-07 00:15:00,
2013-02-06 18:20:00,45.1,30.8,0.00,NNE,14,0.0,0.0,57,0.00,,---,0.00,VWS V14.01,2013-02-07 00:20:00,
2013-02-06 18:25:00,44.8,30.5,0.00,NNE,14,0.0,0.0,57,0.00,,---,0.00,VWS V14.01,2013-02-07 00:25:00,
2013-02-06 18:30:00,44.4,30.6,0.00,NNE,14,0.0,0.0,58,0.00,,---,0.00,VWS V14.01,2013-02-07 00:30:00,
2013-02-06 18:35:00,44.2,30.4,0.00,NNE,14,0.0,0.0,58,0.00,,---,0.00,VWS V14.01,2013-02-07 00:35:00,
2013-02-06 18:40:00,43.7,29.9,0.00,NNE,14,0.0,0.0,58,0.00,,---,0.00,VWS V14.01,2013-02-07 00:40:00,
2013-02-06 18:45:00,43.5,29.7,0.00,NNE,14,0.0,0.0,58,0.00,,---,0.00,VWS V14.01,2013-02-07 00:45:00,
2013-02-06 18:50:00,43.5,29.7,0.00,NNE,14,0.0,0.0,58,0.00,,---,0.00,VWS V14.01,2013-02-07 00:50:00,
2013-02-06 18:55:00,43.3,29.6,0.00,NNE,14,0.0,0.0,58,0.00,,---,0.00,VWS V14.01,2013-02-07 00:55:00,
2013-02-06 19:00:00,43.0,27.9,0.00,NNE,14,0.0,0.0,55,0.00,,---,0.00,VWS V14.01,2013-02-07 01:00:00,
2013-02-06 19:05:00,43.0,29.2,0.00,NNE,14,3.1,3.1,58,0.00,,---,0.00,VWS V14.01,2013-02-07 01:05:00,
2013-02-06 19:10:00,43.3,29.6,0.00,NNE,14,0.0,0.0,58,0.00,,---,0.00,VWS V14.01,2013-02-07 01:10:00,
2013-02-06 19:15:00,42.4,27.9,0.00,NNE,13,0.0,0.0,56,0.00,,---,0.00,VWS V14.01,2013-02-07 01:15:00,
2013-02-06 19:20:00,41.9,27.4,0.00,NNE,13,0.0,0.0,56,0.00,,---,0.00,VWS V14.01,2013-02-07 01:20:00,
2013-02-06 19:25:00,41.5,27.0,0.00,NNE,14,0.0,0.0,56,0.00,,---,0.00,VWS V14.01,2013-02-07 01:25:00,
2013-02-06 19:30:00,41.4,26.9,0.00,NNE,13,0.0,0.0,56,0.00,,---,0.00,VWS V14.01,2013-02-07 01:30:00,
2013-02-06 19:35:00,41.2,26.7,0.00,NNE,13,0.0,0.0,56,0.00,,---,0.00,VWS V14.01,2013-02-07 01:35:00,
2013-02-06 19:40:00,41.2,26.7,0.00,NNE,13,0.0,0.0,56,0.00,,---,0.00,VWS V14.01,2013-02-07 01:40:00,
2013-02-06 19:45:00,41.0,26.5,0.00,NNE,14,0.0,0.0,56,0.00,,---,0.00,VWS V14.01,2013-02-07 01:45:00,
2013-02-06 19:50:00,40.6,26.2,0.00,NNE,13,0.0,0.0,56,0.00,,---,0.00,VWS V14.01,2013-02-07 01:50:00,
2013-02-06 19:55:00,40.5,26.0,0.00,NNE,14,0.0,0.0,56,0.00,,---,0.00,VWS V14.01,2013-02-07 01:55:00,
2013-02-06 20:00:00,40.3,25.9,0.00,SE,128,0.0,0.0,56,0.00,,---,0.00,VWS V14.01,2013-02-07 02:00:00,
2013-02-06 20:05:00,40.3,25.9,0.00,SE,128,0.0,0.0,56,0.00,,---,0.00,VWS V14.01,2013-02-07 02:05:00,
2013-02-06 20:10:00,40.5,26.0,0.00,SE,128,0.0,0.0,56,0.00,,---,0.00,VWS V14.01,2013-02-07 02:10:00,
2013-02-06 20:15:00,40.3,25.9,0.00,SE,128,2.2,2.7,56,0.00,,---,0.00,VWS V14.01,2013-02-07 02:15:00,
2013-02-06 20:20:00,39.9,25.5,0.00,SE,128,0.0,0.0,56,0.00,,---,0.00,VWS V14.01,2013-02-07 02:20:00,
2013-02-06 20:25:00,39.6,25.2,0.00,SE,128,0.0,0.0,56,0.00,,---,0.00,VWS V14.01,2013-02-07 02:25:00,
2013-02-06 20:30:00,39.4,25.0,0.00,SE,128,0.0,0.0,56,0.00,,---,0.00,VWS V14.01,2013-02-07 02:30:00,
2013-02-06 20:35:00,39.4,25.0,0.00,SE,128,0.0,0.0,56,0.00,,---,0.00,VWS V14.01,2013-02-07 02:35:00,
2013-02-06 20:40:00,39.4,25.0,0.00,SE,128,0.0,0.0,56,0.00,,---,0.00,VWS V14.01,2013-02-07 02:40:00,
2013-02-06 20:45:00,39.7,25.3,0.00,SE,128,0.0,0.0,56,0.00,,---,0.00,VWS V14.01,2013-02-07 02:45:00,
2013-02-06 20:50:00,39.7,25.3,0.00,SE,128,0.0,0.0,56,0.00,,---,0.00,VWS V14.01,2013-02-07 02:50:00,
2013-02-06 20:55:00,39.7,25.3,0.00,SE,128,0.0,0.0,56,0.00,,---,0.00,VWS V14.01,2013-02-07 02:55:00,
2013-02-06 21:00:00,39.6,25.2,0.00,SE,128,0.0,0.0,56,0.00,,---,0.00,VWS V14.01,2013-02-07 03:00:00,
2013-02-06 21:05:00,39.6,25.2,0.00,SE,128,0.0,0.0,56,0.00,,---,0.00,VWS V14.01,2013-02-07 03:05:00,
2013-02-06 21:10:00,39.6,25.2,0.00,SE,128,0.0,0.0,56,0.00,,---,0.00,VWS V14.01,2013-02-07 03:10:00,
2013-02-06 21:15:00,39.6,25.2,0.00,SE,128,0.0,0.0,56,0.00,,---,0.00,VWS V14.01,2013-02-07 03:15:00,
2013-02-06 21:20:00,39.4,25.0,0.00,SE,128,0.0,0.0,56,0.00,,---,0.00,VWS V14.01,2013-02-07 03:20:00,
2013-02-06 21:25:00,39.4,25.0,0.00,SE,128,0.0,0.0,56,0.00,,---,0.00,VWS V14.01,2013-02-07 03:25:00,
2013-02-06 21:30:00,39.2,24.8,0.00,SE,128,0.0,0.0,56,0.00,,---,0.00,VWS V14.01,2013-02-07 03:30:00,
2013-02-06 21:35:00,38.8,25.8,0.00,SE,128,0.0,0.0,59,0.00,,---,0.00,VWS V14.01,2013-02-07 03:35:00,
2013-02-06 21:40:00,38.7,25.6,0.00,SE,128,0.0,0.0,59,0.00,,---,0.00,VWS V14.01,2013-02-07 03:40:00,
2013-02-06 21:45:00,38.7,24.3,0.00,SE,128,0.0,0.0,56,0.00,,---,0.00,VWS V14.01,2013-02-07 03:45:00,
2013-02-06 21:50:00,38.8,24.5,0.00,SE,128,0.0,0.0,56,0.00,,---,0.00,VWS V14.01,2013-02-07 03:50:00,
2013-02-06 21:55:00,38.8,24.5,0.00,SE,128,0.0,0.0,56,0.00,,---,0.00,VWS V14.01,2013-02-07 03:55:00,
2013-02-06 22:00:00,38.7,24.3,0.00,SE,128,0.0,0.0,56,0.00,,---,0.00,VWS V14.01,2013-02-07 04:00:00,
2013-02-06 22:05:00,38.7,24.3,0.00,SE,128,0.0,0.0,56,0.00,,---,0.00,VWS V14.01,2013-02-07 04:05:00,
2013-02-06 22:10:00,38.8,24.5,0.00,SE,128,0.0,0.0,56,0.00,,---,0.00,VWS V14.01,2013-02-07 04:10:00,
2013-02-06 22:15:00,38.8,24.5,0.00,SE,128,0.0,0.0,56,0.00,,---,0.00,VWS V14.01,2013-02-07 04:15:00,
2013-02-06 22:20:00,38.7,24.3,0.00,SE,128,0.0,0.0,56,0.00,,---,0.00,VWS V14.01,2013-02-07 04:20:00,
2013-02-06 22:25:00,38.7,24.3,0.00,SE,128,0.0,0.0,56,0.00,,---,0.00,VWS V14.01,2013-02-07 04:25:00,
2013-02-06 22:30:00,38.7,24.3,0.00,SE,128,0.0,0.0,56,0.00,,---,0.00,VWS V14.01,2013-02-07 04:30:00,
2013-02-06 22:35:00,38.7,24.3,0.00,SE,128,0.0,0.0,56,0.00,,---,0.00,VWS V14.01,2013-02-07 04:35:00,
2013-02-06 22:40:00,38.5,24.2,0.00,SE,128,0.0,0.0,56,0.00,,---,0.00,VWS V14.01,2013-02-07 04:40:00,
2013-02-06 22:45:00,38.7,24.3,0.00,SE,128,0.0,0.0,56,0.00,,---,0.00,VWS V14.01,2013-02-07 04:45:00,
2013-02-06 22:50:00,38.7,25.6,0.00,SE,128,0.0,0.0,59,0.00,,---,0.00,VWS V14.01,2013-02-07 04:50:00,
2013-02-06 22:55:00,38.8,25.8,0.00,SE,128,0.0,0.0,59,0.00,,---,0.00,VWS V14.01,2013-02-07 04:55:00,
2013-02-06 23:00:00,38.8,25.8,0.00,SE,128,0.0,0.0,59,0.00,,---,0.00,VWS V14.01,2013-02-07 05:00:00,
2013-02-06 23:05:00,38.7,25.6,0.00,SE,128,0.0,0.0,59,0.00,,---,0.00,VWS V14.01,2013-02-07 05:05:00,
2013-02-06 23:10:00,38.7,25.6,0.00,SE,128,0.0,0.0,59,0.00,,---,0.00,VWS V14.01,2013-02-07 05:10:00,
2013-02-06 23:15:00,38.7,25.6,0.00,SE,128,0.0,0.0,59,0.00,,---,0.00,VWS V14.01,2013-02-07 05:15:00,
2013-02-06 23:20:00,38.7,25.6,0.00,SE,128,0.0,0.0,59,0.00,,---,0.00,VWS V14.01,2013-02-07 05:20:00,
2013-02-06 23:25:00,38.7,25.6,0.00,SE,128,0.0,0.0,59,0.00,,---,0.00,VWS V14.01,2013-02-07 05:25:00,
2013-02-06 23:30:00,39.0,25.9,0.00,SE,128,0.0,0.0,59,0.00,,---,0.00,VWS V14.01,2013-02-07 05:30:00,
2013-02-06 23:35:00,39.2,25.7,0.00,ESE,116,0.0,0.0,58,0.00,,---,0.00,VWS V14.01,2013-02-07 05:35:00,
2013-02-06 23:40:00,39.0,25.9,0.00,ESE,116,0.0,0.0,59,0.00,,---,0.00,VWS V14.01,2013-02-07 05:40:00,
2013-02-06 23:45:00,39.0,25.9,0.00,ESE,116,0.0,0.0,59,0.00,,---,0.00,VWS V14.01,2013-02-07 05:45:00,
2013-02-06 23:50:00,38.8,25.8,0.00,ESE,116,0.0,0.0,59,0.00,,---,0.00,VWS V14.01,2013-02-07 05:50:00,
2013-02-06 23:55:00,38.8,25.8,0.00,ESE,116,0.0,0.0,59,0.00,,---,0.00,VWS V14.01,2013-02-07 05:55:00,